Time;durP1;ratioP1;P1;durP2;ratioP2;P2;SDS_P1;SDS_P2;PMS_P1;PMS_P2;Temp;Humidity;BMP_temperature;BMP_pressure;BME280_temperature;BME280_humidity;BME280_pressure;Samples;Min_cycle;Max_cycle;Signal;HPM_P1;HPM_P2
2023/01/12 00:01:21;;;;;;;9.03;6.07;;;;;;;;;;5036015;28;20038;-79
2023/01/12 00:03:47;;;;;;;11.90;5.00;;;;;;;;;;5034752;28;20083;-78
2023/01/12 00:06:13;;;;;;;10.53;5.73;;;;;;;;;;5034261;28;20048;-79
2023/01/12 00:08:39;;;;;;;7.57;4.50;;;;;;;;;;5033225;28;20026;-79
2023/01/12 00:11:04;;;;;;;11.93;5.47;;;;;;;;;;5031408;28;20033;-79
2023/01/12 00:13:31;;;;;;;8.17;5.13;;;;;;;;;;5033020;28;20112;-80
2023/01/12 00:18:46;;;;;;;7.00;4.37;;;;;;;;;;5034607;28;20085;-79
2023/01/12 00:21:12;;;;;;;11.33;5.07;;;;;;;;;;5031343;28;20397;-80
2023/01/12 00:23:38;;;;;;;7.93;4.07;;;;;;;;;;5032082;28;20034;-79
2023/01/12 00:26:07;;;;;;;7.30;3.97;;;;;;;;;;5030307;28;20033;-79
2023/01/12 00:28:34;;;;;;;6.80;4.23;;;;;;;;;;5030666;28;20029;-79
2023/01/12 00:31:06;;;;;;;5.77;3.00;;;;;;;;;;5030562;28;20493;-79
2023/01/12 00:33:37;;;;;;;9.20;3.50;;;;;;;;;;5033208;28;20026;-79
2023/01/12 00:36:09;;;;;;;8.70;3.50;;;;;;;;;;5034358;28;20029;-79
2023/01/12 00:38:35;;;;;;;12.20;3.87;;;;;;;;;;5017886;28;20624;-79
2023/01/12 00:46:48;;;;;;;4.97;2.47;;;;;;;;;;5011554;28;20397;-79
2023/01/12 00:49:13;;;;;;;4.70;2.27;;;;;;;;;;5009762;28;20051;-79
2023/01/12 00:51:39;;;;;;;5.33;2.60;;;;;;;;;;5009879;28;20596;-79
2023/01/12 00:54:07;;;;;;;6.77;2.50;;;;;;;;;;5009701;28;20486;-79
2023/01/12 00:56:36;;;;;;;4.50;2.07;;;;;;;;;;5010977;28;20026;-79
2023/01/12 00:59:02;;;;;;;5.60;1.70;;;;;;;;;;5009586;28;20034;-80
2023/01/12 01:01:27;;;;;;;5.30;2.10;;;;;;;;;;5010050;28;20028;-80
2023/01/12 01:03:53;;;;;;;7.77;2.50;;;;;;;;;;5009664;28;20026;-79
2023/01/12 01:06:19;;;;;;;8.57;2.80;;;;;;;;;;5008840;28;20018;-78
2023/01/12 01:08:46;;;;;;;14.33;3.10;;;;;;;;;;5009690;28;20026;-78
2023/01/12 01:11:13;;;;;;;5.03;2.90;;;;;;;;;;5011133;28;20471;-80
2023/01/12 01:13:40;;;;;;;5.77;2.57;;;;;;;;;;5011332;28;20022;-78
2023/01/12 01:16:07;;;;;;;5.60;2.50;;;;;;;;;;5009866;28;20033;-79
2023/01/12 01:18:34;;;;;;;8.37;1.77;;;;;;;;;;5012732;28;20100;-79
2023/01/12 01:21:00;;;;;;;8.20;2.33;;;;;;;;;;5017232;28;20045;-80
2023/01/12 01:23:26;;;;;;;4.70;2.47;;;;;;;;;;5016700;28;20447;-79
2023/01/12 01:25:52;;;;;;;4.57;2.33;;;;;;;;;;5012259;28;20486;-80
2023/01/12 01:28:19;;;;;;;4.47;2.30;;;;;;;;;;5010089;28;20026;-79
2023/01/12 01:30:45;;;;;;;9.23;2.80;;;;;;;;;;5009485;28;20026;-79
2023/01/12 01:33:12;;;;;;;5.37;2.10;;;;;;;;;;5009861;28;20033;-79
2023/01/12 01:35:37;;;;;;;3.73;1.97;;;;;;;;;;5011656;28;20049;-79
2023/01/12 01:38:04;;;;;;;3.83;2.23;;;;;;;;;;5019560;28;20053;-79
2023/01/12 01:40:30;;;;;;;5.03;2.13;;;;;;;;;;5030848;28;20484;-79
2023/01/12 01:42:56;;;;;;;7.13;2.20;;;;;;;;;;5030423;28;20054;-79
2023/01/12 01:45:22;;;;;;;9.63;2.33;;;;;;;;;;5029872;28;20168;-79
2023/01/12 01:48:01;;;;;;;6.77;1.70;;;;;;;;;;5030816;28;20052;-79
2023/01/12 01:50:36;;;;;;;4.90;2.10;;;;;;;;;;5029249;28;20347;-78
2023/01/12 01:53:08;;;;;;;6.17;2.23;;;;;;;;;;5028576;28;20048;-79
2023/01/12 01:55:38;;;;;;;3.03;1.73;;;;;;;;;;5030852;28;20053;-79
2023/01/12 01:58:13;;;;;;;4.80;2.00;;;;;;;;;;5030932;28;20037;-79
2023/01/12 02:00:41;;;;;;;4.23;1.70;;;;;;;;;;5030371;28;20533;-79
2023/01/12 02:03:07;;;;;;;5.20;1.87;;;;;;;;;;5029441;28;20112;-79
2023/01/12 02:05:33;;;;;;;8.07;1.97;;;;;;;;;;5029523;28;20174;-78
2023/01/12 02:08:14;;;;;;;8.37;1.90;;;;;;;;;;5028545;28;20116;-79
2023/01/12 02:10:40;;;;;;;5.83;1.97;;;;;;;;;;5029139;28;20048;-78
2023/01/12 02:16:19;;;;;;;8.53;2.23;;;;;;;;;;5030560;28;20073;-79
2023/01/12 02:19:16;;;;;;;4.60;2.20;;;;;;;;;;5028897;28;20025;-78
2023/01/12 02:22:09;;;;;;;4.30;1.90;;;;;;;;;;5029357;28;20024;-79
2023/01/12 02:25:14;;;;;;;5.90;1.93;;;;;;;;;;5031045;28;20029;-78
2023/01/12 02:27:55;;;;;;;5.83;1.90;;;;;;;;;;5030849;28;20029;-79
2023/01/12 02:30:58;;;;;;;7.90;1.80;;;;;;;;;;5029462;28;20036;-80
2023/01/12 02:33:47;;;;;;;5.30;1.97;;;;;;;;;;5028825;28;20505;-78
2023/01/12 02:36:40;;;;;;;5.03;2.07;;;;;;;;;;5029515;28;20045;-78
2023/01/12 02:39:20;;;;;;;4.33;2.07;;;;;;;;;;5010558;28;20021;-78
2023/01/12 02:45:04;;;;;;;6.93;2.03;;;;;;;;;;5010124;28;20041;-77
2023/01/12 02:47:43;;;;;;;4.40;2.23;;;;;;;;;;5008620;28;20080;-79
2023/01/12 02:50:13;;;;;;;5.07;2.20;;;;;;;;;;5009582;28;20030;-78
2023/01/12 02:52:42;;;;;;;4.97;1.67;;;;;;;;;;5009592;28;20125;-79
2023/01/12 02:55:09;;;;;;;6.53;1.20;;;;;;;;;;5007796;28;20075;-78
2023/01/12 02:57:36;;;;;;;2.53;1.47;;;;;;;;;;5009496;28;20502;-78
2023/01/12 03:00:04;;;;;;;3.83;1.20;;;;;;;;;;5009495;28;20053;-78
2023/01/12 03:02:31;;;;;;;6.03;1.53;;;;;;;;;;5008981;28;20052;-79
2023/01/12 03:04:56;;;;;;;3.63;1.00;;;;;;;;;;5007369;28;20118;-79
2023/01/12 03:07:32;;;;;;;1.80;1.30;;;;;;;;;;5007167;28;20134;-78
2023/01/12 03:10:29;;;;;;;6.37;1.37;;;;;;;;;;5007870;28;20022;-79
2023/01/12 03:12:56;;;;;;;7.40;1.20;;;;;;;;;;5007545;28;20026;-78
2023/01/12 03:15:23;;;;;;;5.83;1.40;;;;;;;;;;5008511;28;20065;-78
2023/01/12 03:18:04;;;;;;;1.73;1.23;;;;;;;;;;5008583;28;20040;-78
2023/01/12 03:20:35;;;;;;;3.63;1.20;;;;;;;;;;4999258;28;20029;-78
2023/01/12 03:23:10;;;;;;;2.67;1.10;;;;;;;;;;5008509;28;20026;-79
2023/01/12 03:25:41;;;;;;;4.97;1.77;;;;;;;;;;5009573;28;20450;-78
2023/01/12 03:28:09;;;;;;;4.20;1.10;;;;;;;;;;5009334;28;20022;-78
2023/01/12 03:30:42;;;;;;;10.53;1.97;;;;;;;;;;5010638;28;20128;-78
2023/01/12 03:33:12;;;;;;;4.30;1.47;;;;;;;;;;5013588;28;20037;-79
2023/01/12 03:35:45;;;;;;;9.13;1.80;;;;;;;;;;5012320;28;20096;-79
2023/01/12 03:38:36;;;;;;;3.43;1.57;;;;;;;;;;5023087;28;20026;-79
2023/01/12 03:41:17;;;;;;;3.57;1.13;;;;;;;;;;5033014;28;20075;-78
2023/01/12 03:43:49;;;;;;;5.43;1.75;;;;;;;;;;5031290;28;20096;-77
2023/01/12 03:46:21;;;;;;;6.40;3.00;;;;;;;;;;5030977;28;20037;-77
2023/01/12 03:49:02;;;;;;;4.57;0.95;;;;;;;;;;5031006;28;20029;-77
2023/01/12 03:51:34;;;;;;;5.38;1.40;;;;;;;;;;5031018;28;20049;-77
2023/01/12 03:54:00;;;;;;;5.77;1.13;;;;;;;;;;5030868;28;20057;-77
2023/01/12 03:56:30;;;;;;;4.00;1.30;;;;;;;;;;5031335;28;20033;-77
2023/01/12 03:58:56;;;;;;;8.23;1.23;;;;;;;;;;5032388;28;20030;-78
2023/01/12 04:01:21;;;;;;;3.13;1.00;;;;;;;;;;5030478;28;20036;-77
2023/01/12 04:03:47;;;;;;;4.23;1.13;;;;;;;;;;5030575;28;20033;-77
2023/01/12 04:06:12;;;;;;;3.80;1.37;;;;;;;;;;5030197;28;20076;-77
2023/01/12 04:08:38;;;;;;;3.50;1.20;;;;;;;;;;5030581;28;20441;-79
2023/01/12 04:12:08;;;;;;;6.80;1.17;;;;;;;;;;5031782;28;20450;-76
2023/01/12 04:13:49;;;;;;;1.20;1.07;;;;;;;;;;5032505;28;20022;-78
2023/01/12 04:16:15;;;;;;;5.43;1.40;;;;;;;;;;5031705;28;20111;-78
2023/01/12 04:18:40;;;;;;;4.37;1.57;;;;;;;;;;5032063;28;20021;-78
2023/01/12 04:22:41;;;;;;;5.90;1.20;;;;;;;;;;5032084;28;20072;-78
2023/01/12 04:23:52;;;;;;;3.77;1.27;;;;;;;;;;5032304;28;20445;-78
2023/01/12 04:26:17;;;;;;;5.47;1.33;;;;;;;;;;5030869;28;20017;-78
2023/01/12 04:28:43;;;;;;;5.07;1.07;;;;;;;;;;5033501;28;20068;-77
2023/01/12 04:31:08;;;;;;;5.33;1.40;;;;;;;;;;5031407;28;20033;-78
2023/01/12 04:33:34;;;;;;;6.77;1.50;;;;;;;;;;5032389;28;20029;-77
2023/01/12 04:35:59;;;;;;;3.60;1.10;;;;;;;;;;5031734;28;20029;-77
2023/01/12 04:38:25;;;;;;;6.33;2.03;;;;;;;;;;5029539;28;20040;-77
2023/01/12 04:40:54;;;;;;;7.37;1.77;;;;;;;;;;5028711;28;20192;-77
2023/01/12 04:43:19;;;;;;;7.10;1.37;;;;;;;;;;5029309;28;20049;-79
2023/01/12 04:45:46;;;;;;;9.03;1.47;;;;;;;;;;5030900;28;20022;-77
2023/01/12 04:48:13;;;;;;;7.93;1.73;;;;;;;;;;5029170;28;20128;-77
2023/01/12 04:50:39;;;;;;;4.87;1.33;;;;;;;;;;5029470;28;20033;-76
2023/01/12 04:53:07;;;;;;;8.13;1.63;;;;;;;;;;5030725;28;20033;-77
2023/01/12 04:55:37;;;;;;;17.00;1.67;;;;;;;;;;5030455;28;20390;-77
2023/01/12 04:58:03;;;;;;;8.77;1.43;;;;;;;;;;5029386;28;20033;-77
2023/01/12 05:00:29;;;;;;;6.67;2.23;;;;;;;;;;5030428;28;20041;-76
2023/01/12 05:03:01;;;;;;;2.27;1.03;;;;;;;;;;5029324;28;20465;-76
2023/01/12 05:05:27;;;;;;;;;;;;;;;;;;5029659;28;20029;-77
2023/01/12 05:10:36;;;;;;;5.73;1.80;;;;;;;;;;5031627;28;20036;-77
2023/01/12 05:13:02;;;;;;;8.20;2.40;;;;;;;;;;5030264;28;20402;-77
2023/01/12 05:15:29;;;;;;;5.43;1.37;;;;;;;;;;5031972;28;20033;-77
2023/01/12 05:18:00;;;;;;;5.70;1.40;;;;;;;;;;5031933;28;20041;-78
2023/01/12 05:20:25;;;;;;;5.60;1.47;;;;;;;;;;5029576;28;20053;-77
2023/01/12 05:22:51;;;;;;;7.53;1.80;;;;;;;;;;5030039;28;20029;-77
2023/01/12 05:25:17;;;;;;;3.80;1.27;;;;;;;;;;5029865;28;20029;-78
2023/01/12 05:27:43;;;;;;;4.13;1.20;;;;;;;;;;5029851;28;20116;-78
2023/01/12 05:30:09;;;;;;;6.70;1.60;;;;;;;;;;5030310;28;20099;-79
2023/01/12 05:32:40;;;;;;;5.90;1.07;;;;;;;;;;5028963;28;20035;-78
2023/01/12 05:35:07;;;;;;;4.13;1.20;;;;;;;;;;5028670;28;20033;-75
2023/01/12 05:37:32;;;;;;;7.83;1.63;;;;;;;;;;5012442;28;20037;-77
2023/01/12 05:39:58;;;;;;;5.20;1.10;;;;;;;;;;5028923;28;20029;-75
2023/01/12 05:45:09;;;;;;;4.63;1.23;;;;;;;;;;5030275;28;20051;-77
2023/01/12 05:47:35;;;;;;;9.07;1.53;;;;;;;;;;5028260;28;20535;-78
2023/01/12 05:50:00;;;;;;;5.10;1.53;;;;;;;;;;5038969;28;20032;-76
2023/01/12 05:52:27;;;;;;;8.97;2.07;;;;;;;;;;5028718;28;20503;-80
2023/01/12 05:54:52;;;;;;;9.03;2.00;;;;;;;;;;5028509;28;20025;-80
2023/01/12 05:57:18;;;;;;;9.03;2.27;;;;;;;;;;5029923;28;20470;-80
2023/01/12 05:59:43;;;;;;;6.07;1.77;;;;;;;;;;5031292;28;20036;-80
2023/01/12 06:02:12;;;;;;;9.97;1.73;;;;;;;;;;5030304;28;20053;-81
2023/01/12 06:04:39;;;;;;;4.07;1.50;;;;;;;;;;5030461;28;20033;-80
2023/01/12 06:07:04;;;;;;;8.73;1.90;;;;;;;;;;5030007;28;20108;-79
2023/01/12 06:09:30;;;;;;;5.67;1.60;;;;;;;;;;5027908;28;20473;-79
2023/01/12 06:14:39;;;;;;;8.23;2.03;;;;;;;;;;5028579;28;20099;-76
2023/01/12 06:17:06;;;;;;;8.03;2.67;;;;;;;;;;5025425;28;20465;-77
2023/01/12 06:19:31;;;;;;;5.83;1.57;;;;;;;;;;5026819;28;20034;-75
2023/01/12 06:21:58;;;;;;;7.87;2.10;;;;;;;;;;5025292;28;20031;-76
2023/01/12 06:24:27;;;;;;;3.17;1.73;;;;;;;;;;5013450;28;20022;-79
2023/01/12 06:26:53;;;;;;;4.50;1.67;;;;;;;;;;5008897;28;20060;-77
2023/01/12 06:29:19;;;;;;;6.20;2.10;;;;;;;;;;5024817;28;20037;-76
2023/01/12 06:31:45;;;;;;;7.83;1.80;;;;;;;;;;5020585;28;20036;-78
2023/01/12 06:34:11;;;;;;;3.57;1.40;;;;;;;;;;5015814;28;20034;-77
2023/01/12 06:36:37;;;;;;;8.10;1.67;;;;;;;;;;5021010;28;20037;-76
2023/01/12 06:39:03;;;;;;;5.73;1.40;;;;;;;;;;5021905;28;20022;-75
2023/01/12 06:44:12;;;;;;;8.00;2.10;;;;;;;;;;5006032;28;20125;-75
2023/01/12 06:46:38;;;;;;;4.83;2.17;;;;;;;;;;5005664;28;20132;-76
2023/01/12 06:49:03;;;;;;;8.87;3.00;;;;;;;;;;5005120;28;20665;-77
2023/01/12 06:51:29;;;;;;;6.47;1.50;;;;;;;;;;5005272;28;20037;-76
2023/01/12 06:53:55;;;;;;;9.27;2.63;;;;;;;;;;5003946;28;20065;-77
2023/01/12 06:56:22;;;;;;;5.23;2.10;;;;;;;;;;5007521;28;20030;-79
2023/01/12 06:58:47;;;;;;;4.77;1.70;;;;;;;;;;5010430;28;20030;-75
2023/01/12 07:01:13;;;;;;;4.40;1.33;;;;;;;;;;5004723;28;20516;-77
2023/01/12 07:03:42;;;;;;;6.00;1.27;;;;;;;;;;5006755;28;20072;-78
2023/01/12 07:06:08;;;;;;;21.07;1.87;;;;;;;;;;5011734;28;20450;-77
2023/01/12 07:08:34;;;;;;;4.53;1.50;;;;;;;;;;5011716;28;20029;-76
2023/01/12 07:11:02;;;;;;;7.57;2.10;;;;;;;;;;5002394;28;20116;-77
2023/01/12 07:13:31;;;;;;;7.97;2.40;;;;;;;;;;4994763;28;20030;-73
2023/01/12 07:16:00;;;;;;;8.77;2.10;;;;;;;;;;5017542;28;20022;-77
2023/01/12 07:18:27;;;;;;;8.27;1.70;;;;;;;;;;5011047;28;20044;-77
2023/01/12 07:20:56;;;;;;;7.60;2.23;;;;;;;;;;5012635;28;20026;-80
2023/01/12 07:23:22;;;;;;;7.20;2.10;;;;;;;;;;5009477;28;20100;-75
2023/01/12 07:25:48;;;;;;;7.23;1.70;;;;;;;;;;5010776;28;20193;-81
2023/01/12 07:28:14;;;;;;;5.80;1.60;;;;;;;;;;5008657;28;20038;-76
2023/01/12 07:30:40;;;;;;;3.73;1.70;;;;;;;;;;5010341;28;20100;-76
2023/01/12 07:33:11;;;;;;;10.90;3.87;;;;;;;;;;5004549;28;20034;-76
2023/01/12 07:35:39;;;;;;;7.28;1.67;;;;;;;;;;5002004;28;20038;-75
2023/01/12 07:38:05;;;;;;;5.97;2.67;;;;;;;;;;5006149;28;20026;-76
2023/01/12 07:40:30;;;;;;;6.73;1.87;;;;;;;;;;5006336;28;20684;-75
2023/01/12 07:43:01;;;;;;;6.83;1.60;;;;;;;;;;5016409;28;20227;-75
2023/01/12 07:45:28;;;;;;;8.57;2.10;;;;;;;;;;5026052;28;20036;-77
2023/01/12 07:47:55;;;;;;;6.43;3.20;;;;;;;;;;5019493;28;20021;-78
2023/01/12 07:50:22;;;;;;;7.20;2.17;;;;;;;;;;5006036;28;20327;-76
2023/01/12 07:52:49;;;;;;;10.17;2.03;;;;;;;;;;5022910;28;20172;-78
2023/01/12 07:55:20;;;;;;;4.43;2.37;;;;;;;;;;5025860;28;20060;-80
2023/01/12 07:57:58;;;;;;;9.80;1.88;;;;;;;;;;5026534;28;20156;-75
2023/01/12 08:00:24;;;;;;;5.33;2.10;;;;;;;;;;5025010;28;20392;-78
2023/01/12 08:02:54;;;;;;;10.00;2.20;;;;;;;;;;5019769;28;20411;-78
2023/01/12 08:05:21;;;;;;;6.80;1.67;;;;;;;;;;5022431;28;20034;-74
2023/01/12 08:07:47;;;;;;;3.23;1.70;;;;;;;;;;5023433;28;20034;-77
2023/01/12 08:10:13;;;;;;;8.97;2.97;;;;;;;;;;5024711;28;20060;-76
2023/01/12 08:12:50;;;;;;;4.63;2.70;;;;;;;;;;5023528;28;20033;-79
2023/01/12 08:15:16;;;;;;;5.63;1.53;;;;;;;;;;5027756;28;20128;-76
2023/01/12 08:18:24;;;;;;;7.33;2.83;;;;;;;;;;5027176;28;20454;-76
2023/01/12 08:20:59;;;;;;;6.40;2.27;;;;;;;;;;5027743;28;20042;-78
2023/01/12 08:23:35;;;;;;;7.10;2.07;;;;;;;;;;5024041;28;20033;-78
2023/01/12 08:26:05;;;;;;;5.70;1.97;;;;;;;;;;5021752;28;20034;-76
2023/01/12 08:28:57;;;;;;;6.03;1.97;;;;;;;;;;5018053;28;20076;-77
2023/01/12 08:31:25;;;;;;;6.93;1.77;;;;;;;;;;5015738;28;20045;-77
2023/01/12 08:33:53;;;;;;;11.40;1.60;;;;;;;;;;5026219;28;20041;-78
2023/01/12 08:36:19;;;;;;;7.90;1.97;;;;;;;;;;5022510;28;20120;-79
2023/01/12 08:38:45;;;;;;;8.27;1.33;;;;;;;;;;5026050;28;20037;-76
2023/01/12 08:44:01;;;;;;;6.80;1.53;;;;;;;;;;5013587;28;20060;-77
2023/01/12 08:46:27;;;;;;;;;;;;;;;;;;5019898;28;20028;-76
2023/01/12 08:48:53;;;;;;;6.70;1.70;;;;;;;;;;5027073;28;19917;-81
2023/01/12 08:51:18;;;;;;;4.13;1.57;;;;;;;;;;5022284;28;20044;-78
2023/01/12 08:53:52;;;;;;;7.03;1.40;;;;;;;;;;5014593;28;20037;-78
2023/01/12 08:56:18;;;;;;;4.40;1.30;;;;;;;;;;5020356;28;20049;-81
2023/01/12 08:58:45;;;;;;;4.97;1.50;;;;;;;;;;5021981;28;20117;-77
2023/01/12 09:01:18;;;;;;;8.00;2.17;;;;;;;;;;5025827;28;20128;-78
2023/01/12 09:04:02;;;;;;;4.97;1.50;;;;;;;;;;5022591;28;20458;-78
2023/01/12 09:06:34;;;;;;;9.33;1.40;;;;;;;;;;5019540;28;20029;-83
2023/01/12 09:09:05;;;;;;;6.57;1.80;;;;;;;;;;5034535;28;20124;-80
2023/01/12 09:11:31;;;;;;;6.23;1.60;;;;;;;;;;5006685;28;20052;-83
2023/01/12 09:13:57;;;;;;;9.13;1.50;;;;;;;;;;5004450;28;20079;-80
2023/01/12 09:16:27;;;;;;;10.93;1.50;;;;;;;;;;5025828;28;20033;-82
2023/01/12 09:18:53;;;;;;;7.67;2.03;;;;;;;;;;5028664;28;20119;-80
2023/01/12 09:21:21;;;;;;;4.15;1.15;;;;;;;;;;5017241;28;20469;-79
2023/01/12 09:23:51;;;;;;;6.10;1.30;;;;;;;;;;5019708;28;20152;-81
2023/01/12 09:26:22;;;;;;;8.70;2.90;;;;;;;;;;5025237;28;20024;-77
2023/01/12 09:28:50;;;;;;;2.38;0.82;;;;;;;;;;5017601;28;20060;-74
2023/01/12 09:31:21;;;;;;;3.43;1.10;;;;;;;;;;5015879;28;20375;-80
2023/01/12 09:33:48;;;;;;;6.95;1.30;;;;;;;;;;5015257;28;20044;-79
2023/01/12 09:36:17;;;;;;;2.73;1.60;;;;;;;;;;5007642;28;20128;-78
2023/01/12 09:38:44;;;;;;;3.20;1.38;;;;;;;;;;5024389;28;20508;-77
2023/01/12 09:48:00;;;;;;;6.40;1.15;;;;;;;;;;5023151;28;20512;-82
2023/01/12 09:50:53;;;;;;;12.38;1.55;;;;;;;;;;5019542;28;20454;-80
2023/01/12 09:53:37;;;;;;;6.57;1.98;;;;;;;;;;5023268;28;20048;-80
2023/01/12 09:56:24;;;;;;;3.60;0.93;;;;;;;;;;5023729;28;20038;-74
2023/01/12 09:59:04;;;;;;;3.58;1.50;;;;;;;;;;5015298;28;20094;-77
2023/01/12 10:01:30;;;;;;;6.25;1.48;;;;;;;;;;5017285;28;20036;-78
2023/01/12 10:03:58;;;;;;;4.15;1.63;;;;;;;;;;5018394;28;20032;-75
2023/01/12 10:06:24;;;;;;;6.20;1.63;;;;;;;;;;5008654;28;20041;-77
2023/01/12 10:09:05;;;;;;;5.35;1.48;;;;;;;;;;5026326;28;20370;-79
2023/01/12 10:11:49;;;;;;;3.70;1.00;;;;;;;;;;5015317;28;20817;-78
2023/01/12 10:14:33;;;;;;;2.42;1.00;;;;;;;;;;5014309;28;20029;-76
2023/01/12 10:17:08;;;;;;;2.60;1.65;;;;;;;;;;5021716;28;20029;-76
2023/01/12 10:20:13;;;;;;;5.40;1.30;;;;;;;;;;5022882;28;20449;-76
2023/01/12 10:23:14;;;;;;;7.68;1.17;;;;;;;;;;5016109;28;20099;-79
2023/01/12 10:25:52;;;;;;;4.80;1.20;;;;;;;;;;5021365;28;20025;-78
2023/01/12 10:28:28;;;;;;;5.80;1.40;;;;;;;;;;5019089;28;20091;-77
2023/01/12 10:30:55;;;;;;;6.00;1.38;;;;;;;;;;5020916;28;20060;-75
2023/01/12 10:33:24;;;;;;;2.90;0.95;;;;;;;;;;5019859;28;20033;-75
2023/01/12 10:36:17;;;;;;;6.03;1.15;;;;;;;;;;5018073;28;20045;-78
2023/01/12 10:38:56;;;;;;;8.90;2.50;;;;;;;;;;5018338;28;20037;-80
2023/01/12 10:41:33;;;;;;;6.13;1.48;;;;;;;;;;5023615;28;20041;-77
2023/01/12 10:43:58;;;;;;;5.20;1.10;;;;;;;;;;5030562;28;20120;-77
2023/01/12 10:46:27;;;;;;;5.65;1.02;;;;;;;;;;5027961;28;20438;-80
2023/01/12 10:49:02;;;;;;;3.25;0.90;;;;;;;;;;5028918;28;20120;-76
2023/01/12 10:51:30;;;;;;;9.27;1.67;;;;;;;;;;5028845;28;20033;-77
2023/01/12 10:54:28;;;;;;;6.18;1.10;;;;;;;;;;5024715;28;20586;-78
2023/01/12 10:57:16;;;;;;;4.95;1.50;;;;;;;;;;5031568;28;20504;-76
2023/01/12 10:59:54;;;;;;;7.28;2.08;;;;;;;;;;5026403;28;20030;-77
2023/01/12 11:02:22;;;;;;;2.80;1.42;;;;;;;;;;5014799;28;20108;-77
2023/01/12 11:04:53;;;;;;;6.75;1.20;;;;;;;;;;5031463;28;20029;-78
2023/01/12 11:07:29;;;;;;;8.93;1.50;;;;;;;;;;5032014;28;20056;-79
2023/01/12 11:10:16;;;;;;;7.75;1.17;;;;;;;;;;5032921;28;20692;-79
2023/01/12 11:12:52;;;;;;;9.10;1.20;;;;;;;;;;5036700;28;20040;-79
2023/01/12 11:15:19;;;;;;;2.75;1.02;;;;;;;;;;5020155;28;20044;-81
2023/01/12 11:18:01;;;;;;;4.22;1.20;;;;;;;;;;5036997;28;20133;-81
2023/01/12 11:20:29;;;;;;;9.85;1.20;;;;;;;;;;5027971;28;20104;-81
2023/01/12 11:23:00;;;;;;;3.88;0.77;;;;;;;;;;5030765;28;20025;-77
2023/01/12 11:25:30;;;;;;;7.38;1.48;;;;;;;;;;5024392;28;20450;-78
2023/01/12 11:28:09;;;;;;;4.43;1.27;;;;;;;;;;5020653;28;20030;-80
2023/01/12 11:30:43;;;;;;;9.05;1.35;;;;;;;;;;5029534;28;20033;-76
2023/01/12 11:33:14;;;;;;;3.97;1.25;;;;;;;;;;5026591;28;20087;-74
2023/01/12 11:36:07;;;;;;;6.70;1.17;;;;;;;;;;5025559;28;20120;-77
2023/01/12 11:38:35;;;;;;;7.97;1.45;;;;;;;;;;5028918;28;20116;-79
2023/01/12 11:41:04;;;;;;;5.32;1.35;;;;;;;;;;5025021;28;20563;-79
2023/01/12 11:43:59;;;;;;;4.60;1.20;;;;;;;;;;5027266;28;20045;-82
2023/01/12 11:46:46;;;;;;;6.63;1.20;;;;;;;;;;5025425;28;20017;-77
2023/01/12 11:49:17;;;;;;;8.18;1.25;;;;;;;;;;5024199;28;20484;-78
2023/01/12 11:51:48;;;;;;;5.18;1.30;;;;;;;;;;5019839;28;20029;-78
2023/01/12 11:54:17;;;;;;;3.67;1.10;;;;;;;;;;5024497;28;20091;-78
2023/01/12 11:57:02;;;;;;;4.20;1.00;;;;;;;;;;5028063;28;20128;-77
2023/01/12 12:00:05;;;;;;;4.72;0.98;;;;;;;;;;5025739;28;20112;-83
2023/01/12 12:02:45;;;;;;;3.85;1.13;;;;;;;;;;5024953;28;20038;-77
2023/01/12 12:05:35;;;;;;;4.95;1.00;;;;;;;;;;5021980;28;20094;-77
2023/01/12 12:08:26;;;;;;;5.95;1.20;;;;;;;;;;5038558;28;20446;-77
2023/01/12 12:10:54;;;;;;;7.13;1.05;;;;;;;;;;5022423;28;20034;-78
2023/01/12 12:13:47;;;;;;;8.57;1.13;;;;;;;;;;5025305;28;20029;-77
2023/01/12 12:16:43;;;;;;;5.00;1.08;;;;;;;;;;5023815;28;20060;-76
2023/01/12 12:19:40;;;;;;;5.55;1.00;;;;;;;;;;5027061;28;20450;-78
2023/01/12 12:22:50;;;;;;;5.18;1.15;;;;;;;;;;5043070;28;20044;-79
2023/01/12 12:25:24;;;;;;;3.00;1.23;;;;;;;;;;5002509;28;20481;-78
2023/01/12 12:28:15;;;;;;;3.88;1.08;;;;;;;;;;5028909;28;20135;-78
2023/01/12 12:31:02;;;;;;;10.60;1.38;;;;;;;;;;5024464;28;20052;-77
2023/01/12 12:33:49;;;;;;;2.55;0.82;;;;;;;;;;5021238;28;20070;-79
2023/01/12 12:36:51;;;;;;;2.53;0.82;;;;;;;;;;5016043;28;20116;-81
2023/01/12 12:39:35;;;;;;;7.32;1.30;;;;;;;;;;5025058;28;20045;-80
2023/01/12 12:45:22;;;;;;;2.50;1.10;;;;;;;;;;5025640;28;20036;-79
2023/01/12 12:47:53;;;;;;;3.67;1.33;;;;;;;;;;5023617;28;20029;-78
2023/01/12 12:50:22;;;;;;;1.95;0.90;;;;;;;;;;5021146;28;20041;-78
2023/01/12 12:53:11;;;;;;;6.38;1.20;;;;;;;;;;5026709;28;20099;-77
2023/01/12 12:55:37;;;;;;;7.72;1.42;;;;;;;;;;5023722;28;20088;-79
2023/01/12 12:58:28;;;;;;;3.25;1.35;;;;;;;;;;5007102;28;20021;-77
2023/01/12 13:01:14;;;;;;;6.28;1.60;;;;;;;;;;5025860;28;20041;-80
2023/01/12 13:03:40;;;;;;;7.20;1.20;;;;;;;;;;5022269;28;20171;-78
2023/01/12 13:06:16;;;;;;;3.50;1.55;;;;;;;;;;5025192;28;20133;-78
2023/01/12 13:08:45;;;;;;;3.95;1.00;;;;;;;;;;5024843;28;20029;-78
2023/01/12 13:11:11;;;;;;;4.32;1.30;;;;;;;;;;5022875;28;20030;-79
2023/01/12 13:13:55;;;;;;;4.43;1.20;;;;;;;;;;5024273;28;20458;-78
2023/01/12 13:16:28;;;;;;;8.27;1.50;;;;;;;;;;5023755;28;20037;-77
2023/01/12 13:18:53;;;;;;;7.63;1.08;;;;;;;;;;5025527;28;20048;-76
2023/01/12 13:21:25;;;;;;;3.83;0.88;;;;;;;;;;5023665;28;20868;-79
2023/01/12 13:23:52;;;;;;;8.55;1.13;;;;;;;;;;5024099;28;20025;-78
2023/01/12 13:26:40;;;;;;;1.73;0.90;;;;;;;;;;5025361;28;20162;-78
2023/01/12 13:29:27;;;;;;;7.45;1.00;;;;;;;;;;5014914;28;20045;-77
2023/01/12 13:32:17;;;;;;;2.53;1.05;;;;;;;;;;5017728;28;20017;-79
2023/01/12 13:34:45;;;;;;;0.80;0.68;;;;;;;;;;5037574;28;20029;-79
2023/01/12 13:37:35;;;;;;;4.18;0.88;;;;;;;;;;5026205;28;20458;-81
2023/01/12 13:40:25;;;;;;;4.18;0.80;;;;;;;;;;5015264;28;20034;-77
2023/01/12 13:43:14;;;;;;;4.55;1.00;;;;;;;;;;5007423;28;20065;-76
2023/01/12 13:46:09;;;;;;;2.95;1.55;;;;;;;;;;5023440;28;20104;-79
2023/01/12 13:48:35;;;;;;;1.80;0.75;;;;;;;;;;5024229;28;20412;-78
2023/01/12 13:51:11;;;;;;;6.80;0.75;;;;;;;;;;5021678;28;20033;-78
2023/01/12 13:53:38;;;;;;;2.70;1.00;;;;;;;;;;5018391;28;20044;-76
2023/01/12 13:56:06;;;;;;;3.15;0.70;;;;;;;;;;5025340;28;20076;-75
2023/01/12 13:58:42;;;;;;;3.67;1.15;;;;;;;;;;4998546;28;20052;-76
2023/01/12 14:01:24;;;;;;;1.70;0.55;;;;;;;;;;5023643;28;20151;-79
2023/01/12 14:04:14;;;;;;;5.47;1.27;;;;;;;;;;5011930;28;20037;-78
2023/01/12 14:06:51;;;;;;;1.80;1.10;;;;;;;;;;5019429;28;20509;-76
2023/01/12 14:09:59;;;;;;;3.37;1.10;;;;;;;;;;5023962;28;20029;-77
2023/01/12 14:12:38;;;;;;;6.50;1.10;;;;;;;;;;5021395;28;20033;-78
2023/01/12 14:18:08;;;;;;;2.80;0.95;;;;;;;;;;5024042;28;20044;-77
2023/01/12 14:20:50;;;;;;;1.88;0.65;;;;;;;;;;5022663;28;20467;-79
2023/01/12 14:23:21;;;;;;;2.63;0.93;;;;;;;;;;5023065;28;20124;-79
2023/01/12 14:26:02;;;;;;;3.90;1.03;;;;;;;;;;5015405;28;20159;-79
2023/01/12 14:28:28;;;;;;;4.47;1.10;;;;;;;;;;5005982;28;20045;-77
2023/01/12 14:30:55;;;;;;;1.73;1.17;;;;;;;;;;5021857;28;20053;-75
2023/01/12 14:33:30;;;;;;;3.53;1.55;;;;;;;;;;5023850;28;20040;-75
2023/01/12 14:36:03;;;;;;;1.73;0.85;;;;;;;;;;5014617;28;20061;-77
2023/01/12 14:38:31;;;;;;;4.35;1.70;;;;;;;;;;5021561;28;20067;-78
2023/01/12 14:46:23;;;;;;;3.85;1.27;;;;;;;;;;5022816;28;20044;-77
2023/01/12 14:46:51;;;;;;;3.83;1.08;;;;;;;;;;5024771;28;20055;-77
2023/01/12 14:49:20;;;;;;;3.25;1.05;;;;;;;;;;5025747;28;20045;-77
2023/01/12 14:52:00;;;;;;;2.50;0.93;;;;;;;;;;5021163;28;20158;-77
2023/01/12 14:54:29;;;;;;;4.45;1.20;;;;;;;;;;5018897;28;20433;-77
2023/01/12 14:57:36;;;;;;;5.88;2.00;;;;;;;;;;5022826;28;20038;-79
2023/01/12 15:00:04;;;;;;;6.05;1.10;;;;;;;;;;5016891;28;20149;-77
2023/01/12 15:02:49;;;;;;;5.40;1.48;;;;;;;;;;5019622;28;20036;-79
2023/01/12 15:05:24;;;;;;;2.63;1.07;;;;;;;;;;5018022;28;20124;-78
2023/01/12 15:08:00;;;;;;;5.68;1.15;;;;;;;;;;5018369;28;20067;-78
2023/01/12 15:10:41;;;;;;;5.70;1.10;;;;;;;;;;5023907;28;20396;-79
2023/01/12 15:13:27;;;;;;;3.83;1.20;;;;;;;;;;5023307;28;20025;-78
2023/01/12 15:27:14;;;;;;;1.75;1.05;;;;;;;;;;5028772;28;20052;-81
2023/01/12 15:29:40;;;;;;;5.03;1.10;;;;;;;;;;5019246;28;20108;-79
2023/01/12 15:32:31;;;;;;;3.30;1.48;;;;;;;;;;5024818;28;20144;-79
2023/01/12 15:34:58;;;;;;;4.85;1.70;;;;;;;;;;5026415;28;20045;-79
2023/01/12 15:37:23;;;;;;;2.22;1.10;;;;;;;;;;5012154;28;20033;-77
2023/01/12 15:39:50;;;;;;;5.47;2.38;;;;;;;;;;5027623;28;20405;-78
2023/01/12 15:42:18;;;;;;;5.40;1.45;;;;;;;;;;5028031;28;20041;-79
2023/01/12 15:44:45;;;;;;;5.07;1.73;;;;;;;;;;5029621;28;20487;-78
2023/01/12 15:47:12;;;;;;;8.82;1.40;;;;;;;;;;5027775;28;20093;-78
2023/01/12 15:49:39;;;;;;;2.58;0.95;;;;;;;;;;5029053;28;20029;-79
2023/01/12 15:52:10;;;;;;;4.38;1.30;;;;;;;;;;5029487;28;20080;-78
2023/01/12 15:54:36;;;;;;;1.65;1.05;;;;;;;;;;5027345;28;20044;-81
2023/01/12 15:57:04;;;;;;;2.67;1.10;;;;;;;;;;5028997;28;20659;-79
2023/01/12 15:59:29;;;;;;;6.38;1.50;;;;;;;;;;5030102;28;20136;-80
2023/01/12 16:01:55;;;;;;;4.05;1.25;;;;;;;;;;5027152;28;20029;-78
2023/01/12 16:04:22;;;;;;;2.70;1.30;;;;;;;;;;5025653;28;20099;-79
2023/01/12 16:06:49;;;;;;;3.65;1.42;;;;;;;;;;5028852;28;20052;-80
2023/01/12 16:09:14;;;;;;;4.97;1.20;;;;;;;;;;5028786;28;20034;-79
2023/01/12 16:11:41;;;;;;;3.90;1.55;;;;;;;;;;5028571;28;20108;-79